Time;durP1;ratioP1;P1;durP2;ratioP2;P2;SDS_P1;SDS_P2;PMS_P1;PMS_P2;Temp;Humidity;BMP_temperature;BMP_pressure;BME280_temperature;BME280_humidity;BME280_pressure;Samples;Min_cycle;Max_cycle;Signal;HPM_P1;HPM_P2
2022/08/26 00:00:14;;;;;;;2.78;1.83;;;27.90;62.60;;;;;;10947560;32;20027;-71
2022/08/26 00:06:17;;;;;;;3.15;1.58;;;27.80;62.80;;;;;;10947368;32;20023;-71
2022/08/26 00:12:19;;;;;;;4.43;1.65;;;27.80;62.90;;;;;;10933782;32;20351;-71
2022/08/26 00:18:22;;;;;;;2.95;1.60;;;27.80;63.00;;;;;;10946972;32;20023;-71
2022/08/26 00:24:24;;;;;;;4.07;2.22;;;27.80;63.20;;;;;;10946743;32;20423;-71
2022/08/26 00:30:28;;;;;;;2.70;1.33;;;27.80;63.30;;;;;;10946559;32;20293;-71
2022/08/26 00:36:30;;;;;;;2.53;1.37;;;27.70;63.40;;;;;;10945644;32;20022;-71
2022/08/26 00:42:32;;;;;;;2.25;1.55;;;27.50;63.60;;;;;;10946047;32;20015;-71
2022/08/26 00:48:37;;;;;;;3.37;1.80;;;27.50;63.70;;;;;;10946110;32;20045;-71
2022/08/26 00:54:45;;;;;;;2.37;1.52;;;27.50;63.80;;;;;;10932343;32;20430;-71
2022/08/26 01:00:47;;;;;;;2.12;1.12;;;27.50;63.80;;;;;;10931964;32;20046;-71
2022/08/26 01:06:52;;;;;;;1.75;1.10;;;27.40;63.90;;;;;;10945280;32;20015;-71
2022/08/26 01:13:00;;;;;;;2.55;1.35;;;27.40;63.90;;;;;;10945129;32;20019;-71
2022/08/26 01:19:16;;;;;;;2.05;1.25;;;27.30;63.90;;;;;;10944864;32;20018;-71
2022/08/26 01:25:21;;;;;;;2.45;1.37;;;27.30;64.00;;;;;;10944718;32;20031;-71
2022/08/26 01:31:27;;;;;;;1.23;0.85;;;27.30;64.10;;;;;;10944295;32;20046;-71
2022/08/26 01:37:35;;;;;;;3.12;1.85;;;27.30;64.40;;;;;;10944064;32;20042;-71
2022/08/26 01:43:38;;;;;;;11.63;2.07;;;27.30;64.60;;;;;;10944004;32;20042;-71
2022/08/26 01:49:43;;;;;;;2.45;1.92;;;27.30;64.40;;;;;;10939074;32;20053;-71
2022/08/26 01:55:49;;;;;;;6.03;1.70;;;27.30;64.50;;;;;;10943537;32;20050;-71
2022/08/26 02:01:51;;;;;;;5.93;1.58;;;27.30;64.80;;;;;;10943435;32;20339;-71
2022/08/26 02:07:54;;;;;;;4.28;2.08;;;27.30;64.80;;;;;;10943188;32;20469;-71
2022/08/26 02:14:07;;;;;;;2.80;1.52;;;27.30;64.80;;;;;;10943045;32;20398;-71
2022/08/26 02:20:16;;;;;;;5.72;2.00;;;27.20;65.00;;;;;;10942743;32;20104;-71
2022/08/26 02:26:21;;;;;;;1.87;1.52;;;27.10;65.10;;;;;;10942529;32;20019;-71
2022/08/26 02:32:23;;;;;;;2.95;1.98;;;27.00;65.20;;;;;;10942271;32;20018;-71
2022/08/26 02:38:26;;;;;;;3.53;1.92;;;26.90;65.40;;;;;;10942328;32;20019;-71
2022/08/26 02:44:28;;;;;;;2.53;1.92;;;26.90;65.50;;;;;;10928646;32;20030;-71
2022/08/26 02:50:31;;;;;;;5.78;2.03;;;26.80;65.60;;;;;;10937615;32;20085;-71
2022/08/26 02:56:33;;;;;;;2.60;1.95;;;26.80;65.70;;;;;;10928174;32;20031;-71
2022/08/26 03:02:36;;;;;;;4.28;2.78;;;26.80;65.80;;;;;;10946636;32;20339;-71
2022/08/26 03:08:38;;;;;;;3.40;2.20;;;26.70;65.90;;;;;;10949441;32;20053;-71
2022/08/26 03:14:40;;;;;;;3.15;1.80;;;26.70;66.10;;;;;;10935758;32;20027;-71
2022/08/26 03:20:42;;;;;;;2.90;2.20;;;26.70;66.20;;;;;;10948895;32;20375;-71
2022/08/26 03:26:45;;;;;;;3.78;1.55;;;26.60;66.30;;;;;;10948801;32;20077;-71
2022/08/26 03:32:47;;;;;;;3.17;1.83;;;26.50;66.60;;;;;;10948158;32;20023;-71
2022/08/26 03:38:49;;;;;;;3.55;2.40;;;26.40;66.80;;;;;;10934840;32;20023;-71
2022/08/26 03:44:51;;;;;;;3.75;1.85;;;26.50;66.70;;;;;;10934854;32;20426;-71
2022/08/26 03:50:53;;;;;;;4.75;2.78;;;26.40;66.80;;;;;;10948087;32;20019;-71
2022/08/26 03:56:55;;;;;;;6.57;2.83;;;26.30;67.10;;;;;;10947866;32;20433;-71
2022/08/26 04:02:57;;;;;;;1.77;1.35;;;26.40;67.20;;;;;;10947604;32;20046;-71
2022/08/26 04:09:02;;;;;;;3.50;2.22;;;26.40;67.60;;;;;;10947383;32;20050;-71
2022/08/26 04:15:07;;;;;;;5.25;2.50;;;26.30;67.50;;;;;;10946230;32;20054;-71
2022/08/26 04:21:10;;;;;;;3.78;2.85;;;26.30;67.60;;;;;;10946792;32;20395;-71
2022/08/26 04:27:13;;;;;;;5.15;2.20;;;26.30;67.70;;;;;;10952680;27;20019;-70
2022/08/26 04:33:15;;;;;;;6.00;3.10;;;26.20;67.80;;;;;;10983285;32;20081;-71
2022/08/26 04:39:19;;;;;;;3.12;1.87;;;26.00;68.00;;;;;;10983813;32;20022;-71
2022/08/26 04:45:21;;;;;;;3.67;2.20;;;26.10;68.10;;;;;;10983596;32;20022;-71
2022/08/26 04:51:27;;;;;;;4.68;2.67;;;26.10;68.00;;;;;;10983385;32;20023;-71
2022/08/26 04:57:30;;;;;;;3.47;1.90;;;26.10;68.10;;;;;;10969838;32;20031;-71
2022/08/26 05:03:34;;;;;;;3.70;2.15;;;26.10;68.00;;;;;;10983124;32;20394;-71
2022/08/26 05:09:39;;;;;;;4.05;2.03;;;26.10;68.10;;;;;;10982753;32;20057;-71
2022/08/26 05:15:41;;;;;;;5.50;3.33;;;26.20;68.20;;;;;;10978447;32;20018;-71
2022/08/26 05:21:43;;;;;;;4.18;2.40;;;26.20;68.20;;;;;;10982206;32;20429;-71
2022/08/26 05:27:45;;;;;;;3.83;2.55;;;26.30;68.10;;;;;;10981985;32;20045;-71
2022/08/26 05:33:48;;;;;;;8.45;3.00;;;26.20;68.20;;;;;;10981972;32;20023;-71
2022/08/26 05:39:50;;;;;;;3.72;2.47;;;26.10;68.20;;;;;;10980992;32;20030;-71
2022/08/26 05:45:53;;;;;;;3.60;2.78;;;26.10;68.20;;;;;;10981458;32;20026;-71
2022/08/26 05:51:55;;;;;;;3.08;1.73;;;26.20;68.20;;;;;;10981236;32;20030;-71
2022/08/26 05:57:57;;;;;;;2.72;1.62;;;26.20;68.10;;;;;;10981027;32;20034;-71
